Time;durP1;ratioP1;P1;durP2;ratioP2;P2;SDS_P1;SDS_P2;PMS_P1;PMS_P2;Temp;Humidity;BMP_temperature;BMP_pressure;BME280_temperature;BME280_humidity;BME280_pressure;Samples;Min_cycle;Max_cycle;Signal;HPM_P1;HPM_P2
2022/08/16 00:00:49;;;;;;;16.58;8.55;;;;;;;20.74;86.04;100521.50;5045670;28;20041;-45
2022/08/16 00:03:14;;;;;;;12.18;9.13;;;;;;;20.72;86.21;100533.63;5036728;28;20485;-49
2022/08/16 00:05:41;;;;;;;13.18;8.70;;;;;;;20.66;87.05;100528.09;5035671;28;20219;-45
2022/08/16 00:08:07;;;;;;;13.27;9.32;;;;;;;20.64;86.62;100530.22;5045053;28;20025;-47
2022/08/16 00:10:33;;;;;;;15.23;9.38;;;;;;;20.62;87.60;100524.22;5051452;28;20522;-47
2022/08/16 00:13:05;;;;;;;16.85;9.90;;;;;;;20.58;87.62;100531.13;5055628;28;20429;-48
2022/08/16 00:15:32;;;;;;;12.35;9.45;;;;;;;20.57;88.19;100531.34;5036064;28;20119;-48
2022/08/16 00:17:57;;;;;;;17.33;10.10;;;;;;;20.55;88.67;100528.88;5037224;28;20028;-48
2022/08/16 00:20:24;;;;;;;13.35;9.70;;;;;;;20.51;88.31;100530.41;5036913;28;20418;-49
2022/08/16 00:22:50;;;;;;;12.98;9.48;;;;;;;20.45;88.53;100526.75;5050443;28;20036;-47
2022/08/16 00:25:17;;;;;;;13.30;10.13;;;;;;;20.38;88.78;100536.06;5057509;28;20498;-49
2022/08/16 00:27:42;;;;;;;15.20;10.40;;;;;;;20.37;89.19;100542.56;5052879;28;20192;-50
2022/08/16 00:30:10;;;;;;;18.52;9.95;;;;;;;20.31;89.71;100539.72;5040567;28;20037;-48
2022/08/16 00:32:38;;;;;;;14.98;9.20;;;;;;;20.31;90.09;100544.31;5049036;28;20056;-47
2022/08/16 00:35:03;;;;;;;14.25;9.25;;;;;;;20.30;90.05;100545.38;5037186;28;20029;-51
2022/08/16 00:37:29;;;;;;;18.30;9.45;;;;;;;20.24;90.17;100546.28;5043379;28;20024;-49
2022/08/16 00:39:54;;;;;;;17.35;9.45;;;;;;;20.18;90.12;100548.06;5050328;28;20025;-50
2022/08/16 00:42:20;;;;;;;15.68;9.88;;;;;;;20.19;90.95;100555.13;5053591;28;20067;-47
2022/08/16 00:44:55;;;;;;;20.05;9.77;;;;;;;20.13;90.68;100547.94;5056172;28;20241;-47
2022/08/16 00:47:24;;;;;;;13.50;9.20;;;;;;;20.05;90.72;100556.41;5040405;28;20380;-49
2022/08/16 00:49:50;;;;;;;17.52;9.18;;;;;;;20.06;91.38;100558.88;5052186;28;20445;-48
2022/08/16 00:52:15;;;;;;;10.82;8.93;;;;;;;19.97;92.06;100556.72;5036593;28;20137;-49
2022/08/16 00:54:41;;;;;;;14.40;9.00;;;;;;;19.93;91.45;100550.94;5055315;28;20020;-50
2022/08/16 00:57:07;;;;;;;15.85;9.30;;;;;;;19.93;91.98;100553.66;5054544;28;20040;-51
2022/08/16 00:59:35;;;;;;;17.50;8.95;;;;;;;19.90;92.63;100556.81;5056085;28;20347;-50
2022/08/16 01:02:03;;;;;;;12.38;9.27;;;;;;;19.86;93.57;100558.34;5047657;28;20237;-50
2022/08/16 01:04:28;;;;;;;13.18;9.90;;;;;;;19.86;94.19;100559.16;5056521;28;20106;-54
2022/08/16 01:06:54;;;;;;;15.98;10.30;;;;;;;19.84;94.23;100550.44;5056122;28;20499;-50
2022/08/16 01:09:21;;;;;;;14.68;10.75;;;;;;;19.82;94.06;100549.00;5054622;28;20078;-47
2022/08/16 01:11:46;;;;;;;16.77;10.60;;;;;;;19.82;94.30;100557.13;5042367;28;20040;-49
2022/08/16 01:14:22;;;;;;;17.67;12.30;;;;;;;19.83;94.00;100553.38;5052058;28;20379;-49
2022/08/16 01:16:49;;;;;;;17.58;11.40;;;;;;;19.79;93.88;100555.72;5044282;28;20028;-48
2022/08/16 01:19:21;;;;;;;15.73;11.25;;;;;;;19.77;94.49;100548.84;5035896;28;20013;-51
2022/08/16 01:21:51;;;;;;;18.42;11.80;;;;;;;19.82;94.58;100549.81;5035858;28;20213;-50
2022/08/16 01:24:25;;;;;;;15.80;11.00;;;;;;;19.78;94.64;100553.22;5035679;28;20029;-46
2022/08/16 01:26:55;;;;;;;16.58;11.05;;;;;;;19.77;95.26;100559.69;5034217;28;20324;-49
2022/08/16 01:29:30;;;;;;;16.95;11.30;;;;;;;19.78;94.40;100564.88;5033265;28;20153;-46
2022/08/16 01:31:55;;;;;;;17.20;11.48;;;;;;;19.64;95.54;100556.09;5035217;28;20503;-48
2022/08/16 01:34:21;;;;;;;18.10;10.68;;;;;;;19.64;94.82;100550.66;5035370;28;20052;-48
2022/08/16 01:36:46;;;;;;;19.52;10.77;;;;;;;19.55;95.62;100550.16;5043021;28;20107;-50
2022/08/16 01:39:16;;;;;;;17.05;10.98;;;;;;;19.57;96.18;100548.03;5042363;28;20024;-50
2022/08/16 01:41:43;;;;;;;15.25;11.45;;;;;;;19.51;96.80;100548.13;5054798;28;20024;-50
2022/08/16 01:44:09;;;;;;;14.32;10.80;;;;;;;19.56;96.51;100550.97;5041578;28;20029;-49
2022/08/16 01:46:46;;;;;;;16.50;11.55;;;;;;;19.56;97.07;100557.22;5052098;28;20458;-50
2022/08/16 01:49:13;;;;;;;17.23;11.73;;;;;;;19.54;97.89;100550.38;5040115;28;20128;-51
2022/08/16 01:51:42;;;;;;;16.52;12.27;;;;;;;19.57;98.82;100555.34;5049198;28;20025;-48
2022/08/16 01:54:07;;;;;;;24.33;12.55;;;;;;;19.49;97.85;100544.81;5045692;28;20035;-46
2022/08/16 01:56:33;;;;;;;18.00;12.52;;;;;;;19.43;98.69;100551.13;5034404;28;20069;-49
2022/08/16 01:59:01;;;;;;;16.73;12.48;;;;;;;19.41;98.96;100554.06;5035207;28;20032;-48
2022/08/16 02:01:28;;;;;;;18.35;12.60;;;;;;;19.41;99.74;100553.25;5033833;28;20551;-48
2022/08/16 02:03:53;;;;;;;17.77;12.98;;;;;;;19.42;99.02;100558.44;5035062;28;20441;-43
2022/08/16 02:06:19;;;;;;;18.92;13.80;;;;;;;19.35;100.00;100561.22;5032607;28;20033;-49
2022/08/16 02:08:45;;;;;;;16.23;13.13;;;;;;;19.29;100.00;100553.19;5035646;28;20510;-50
2022/08/16 02:11:12;;;;;;;19.40;13.25;;;;;;;19.16;100.00;100556.84;5046371;28;20614;-45
2022/08/16 02:13:39;;;;;;;21.83;14.18;;;;;;;19.07;100.00;100550.09;5054659;28;20160;-47
2022/08/16 02:16:05;;;;;;;21.05;13.93;;;;;;;19.08;100.00;100549.88;5050533;28;20029;-48
2022/08/16 02:18:30;;;;;;;21.33;14.38;;;;;;;19.06;100.00;100551.13;5039928;28;20201;-46
2022/08/16 02:20:56;;;;;;;18.50;14.27;;;;;;;18.99;100.00;100546.63;5049461;28;20028;-47
2022/08/16 02:23:22;;;;;;;24.30;15.00;;;;;;;18.92;100.00;100547.75;5047178;28;20024;-46
2022/08/16 02:25:48;;;;;;;18.27;14.48;;;;;;;18.81;100.00;100541.16;5041226;28;20064;-46
2022/08/16 02:28:14;;;;;;;26.45;15.00;;;;;;;18.76;100.00;100544.53;5034765;28;20202;-50
2022/08/16 02:30:39;;;;;;;18.42;14.43;;;;;;;18.73;100.00;100546.84;5033708;28;20079;-48
2022/08/16 02:33:06;;;;;;;22.10;14.65;;;;;;;18.69;100.00;100542.94;5034272;28;20515;-47
2022/08/16 02:35:32;;;;;;;26.73;14.35;;;;;;;18.68;100.00;100534.00;5033324;28;20017;-49
2022/08/16 02:37:59;;;;;;;18.83;14.57;;;;;;;18.63;100.00;100539.25;5035017;28;20455;-49
2022/08/16 02:40:25;;;;;;;24.63;14.38;;;;;;;18.63;100.00;100542.78;5032827;28;20098;-47
2022/08/16 02:42:52;;;;;;;20.08;14.07;;;;;;;18.69;100.00;100542.94;5033566;28;20036;-49
2022/08/16 02:45:22;;;;;;;21.85;15.32;;;;;;;18.64;100.00;100547.13;5038851;28;20037;-47
2022/08/16 02:47:47;;;;;;;25.55;14.45;;;;;;;18.65;100.00;100545.25;5035126;28;20603;-49
2022/08/16 02:50:13;;;;;;;23.00;14.45;;;;;;;18.62;100.00;100541.13;5034748;28;20041;-48
2022/08/16 02:52:38;;;;;;;20.23;14.73;;;;;;;18.66;100.00;100543.38;5044959;28;20032;-51
2022/08/16 02:55:05;;;;;;;24.90;15.15;;;;;;;18.57;100.00;100543.66;5052996;28;20506;-51
2022/08/16 02:57:30;;;;;;;24.95;15.15;;;;;;;18.55;100.00;100542.22;5045540;28;20202;-47
2022/08/16 02:59:55;;;;;;;24.10;15.07;;;;;;;18.48;100.00;100539.56;5053597;28;20099;-49
2022/08/16 03:02:21;;;;;;;21.10;15.05;;;;;;;18.46;100.00;100541.66;5035952;28;20021;-48
2022/08/16 03:04:46;;;;;;;26.60;15.07;;;;;;;18.36;100.00;100538.63;5034730;28;20233;-50
2022/08/16 03:07:13;;;;;;;23.70;14.95;;;;;;;18.31;100.00;100539.28;5034618;28;20044;-49
2022/08/16 03:09:39;;;;;;;18.05;14.55;;;;;;;18.32;100.00;100529.31;5035467;28;20591;-46
2022/08/16 03:12:05;;;;;;;24.13;15.60;;;;;;;18.31;100.00;100533.06;5052366;28;20058;-49
2022/08/16 03:14:31;;;;;;;24.55;15.30;;;;;;;18.34;100.00;100524.50;5054548;28;20130;-48
2022/08/16 03:16:58;;;;;;;23.90;15.18;;;;;;;18.35;100.00;100524.28;5050790;28;20425;-49
2022/08/16 03:19:24;;;;;;;23.20;14.73;;;;;;;18.34;100.00;100529.91;5041817;28;20125;-45
2022/08/16 03:21:49;;;;;;;20.08;14.82;;;;;;;18.31;100.00;100530.34;5034305;28;20108;-49
2022/08/16 03:24:15;;;;;;;26.85;15.80;;;;;;;18.26;100.00;100528.31;5048536;28;20020;-44
2022/08/16 03:26:40;;;;;;;24.08;15.57;;;;;;;18.20;100.00;100527.31;5052505;28;20027;-45
2022/08/16 03:29:06;;;;;;;21.42;15.18;;;;;;;18.12;100.00;100526.75;5036162;28;20449;-46
2022/08/16 03:31:31;;;;;;;23.30;15.52;;;;;;;18.08;100.00;100524.50;5053449;28;20571;-47
2022/08/16 03:33:56;;;;;;;21.95;15.40;;;;;;;18.04;100.00;100526.00;5041152;28;20086;-47
2022/08/16 03:36:22;;;;;;;28.35;16.10;;;;;;;18.08;100.00;100526.38;5034183;28;20032;-47
2022/08/16 03:38:47;;;;;;;26.48;16.52;;;;;;;18.06;100.00;100534.69;5034374;28;20048;-45
2022/08/16 03:41:13;;;;;;;24.35;15.70;;;;;;;18.03;100.00;100539.72;5032745;28;20585;-47
2022/08/16 03:43:39;;;;;;;26.80;16.88;;;;;;;17.97;100.00;100543.28;5053355;28;20390;-49
2022/08/16 03:46:04;;;;;;;26.55;16.90;;;;;;;17.87;100.00;100543.75;5052593;28;20032;-49
2022/08/16 03:48:33;;;;;;;22.95;16.00;;;;;;;17.79;100.00;100542.09;5053056;28;20360;-49
2022/08/16 03:51:00;;;;;;;24.30;16.55;;;;;;;17.79;100.00;100547.50;5056317;28;20051;-47
2022/08/16 03:53:26;;;;;;;25.73;16.27;;;;;;;17.80;100.00;100549.16;5057722;28;20207;-48
2022/08/16 03:55:52;;;;;;;25.33;16.42;;;;;;;17.78;100.00;100551.25;5051312;28;20111;-48
2022/08/16 03:58:17;;;;;;;21.50;16.30;;;;;;;17.79;100.00;100555.63;5044178;28;20039;-49
2022/08/16 04:00:43;;;;;;;27.17;16.17;;;;;;;17.79;100.00;100544.81;5047949;28;20555;-48
2022/08/16 04:03:08;;;;;;;26.13;16.88;;;;;;;17.87;100.00;100557.25;5044007;28;20040;-47
2022/08/16 04:05:36;;;;;;;24.27;16.17;;;;;;;17.92;100.00;100559.31;5057651;28;20023;-45
2022/08/16 04:08:04;;;;;;;24.95;16.85;;;;;;;17.90;100.00;100559.53;5042670;28;20017;-47
2022/08/16 04:10:29;;;;;;;21.50;16.63;;;;;;;17.90;100.00;100562.22;5049212;28;20506;-48
2022/08/16 04:12:56;;;;;;;24.25;17.13;;;;;;;17.90;100.00;100564.94;5057656;28;20030;-47
2022/08/16 04:15:22;;;;;;;26.65;17.52;;;;;;;17.88;100.00;100567.03;5056512;28;20443;-47
2022/08/16 04:17:47;;;;;;;27.15;18.00;;;;;;;17.93;100.00;100569.09;5056617;28;20023;-45
2022/08/16 04:20:14;;;;;;;25.42;17.38;;;;;;;17.95;100.00;100564.28;5056484;28;20021;-46
2022/08/16 04:22:41;;;;;;;27.20;18.02;;;;;;;18.02;100.00;100565.88;5046444;28;20480;-48
2022/08/16 04:25:06;;;;;;;26.38;16.73;;;;;;;18.05;100.00;100570.88;5048904;28;20032;-46
2022/08/16 04:27:32;;;;;;;26.15;17.33;;;;;;;18.11;100.00;100566.47;5039110;28;20070;-50
2022/08/16 04:29:58;;;;;;;23.55;16.83;;;;;;;18.17;100.00;100567.47;5041272;28;20078;-49
2022/08/16 04:32:24;;;;;;;25.55;17.52;;;;;;;18.18;100.00;100571.84;5055509;28;20058;-45
2022/08/16 04:34:49;;;;;;;28.40;17.77;;;;;;;18.14;100.00;100571.44;5052451;28;20440;-47
2022/08/16 04:37:14;;;;;;;26.35;18.58;;;;;;;18.13;100.00;100572.50;5053866;28;20042;-48
2022/08/16 04:39:40;;;;;;;24.17;17.48;;;;;;;18.11;100.00;100571.03;5056267;28;20028;-46
2022/08/16 04:42:05;;;;;;;28.83;17.98;;;;;;;18.09;100.00;100568.56;5055530;28;20693;-44
2022/08/16 04:44:31;;;;;;;28.45;19.10;;;;;;;18.12;100.00;100573.53;5056717;28;20067;-45
2022/08/16 04:46:56;;;;;;;28.02;18.50;;;;;;;18.12;100.00;100565.41;5044375;28;20028;-46
2022/08/16 04:49:22;;;;;;;29.73;18.48;;;;;;;18.11;100.00;100579.16;5036040;28;20039;-46
2022/08/16 04:51:48;;;;;;;29.52;18.23;;;;;;;18.12;100.00;100583.50;5051048;28;20040;-46
2022/08/16 04:54:13;;;;;;;26.92;19.02;;;;;;;18.11;100.00;100581.84;5052407;28;20036;-44
2022/08/16 04:56:38;;;;;;;26.25;19.40;;;;;;;18.11;100.00;100579.16;5042644;28;20017;-45
2022/08/16 04:59:07;;;;;;;25.92;19.00;;;;;;;18.12;100.00;100578.09;5035514;28;20055;-44
2022/08/16 05:01:33;;;;;;;24.60;18.02;;;;;;;18.08;100.00;100583.94;5044355;28;20028;-45
2022/08/16 05:03:58;;;;;;;28.85;18.38;;;;;;;18.12;100.00;100587.03;5054637;28;20182;-50
2022/08/16 05:06:23;;;;;;;33.13;19.98;;;;;;;18.16;100.00;100585.56;5057867;28;20155;-46
2022/08/16 05:08:49;;;;;;;30.10;20.27;;;;;;;18.14;100.00;100592.22;5053235;28;20297;-46
2022/08/16 05:11:15;;;;;;;29.40;20.00;;;;;;;18.13;100.00;100593.28;5055326;28;20035;-46
2022/08/16 05:13:44;;;;;;;27.38;20.98;;;;;;;18.07;100.00;100598.53;5054480;28;20028;-45
2022/08/16 05:16:17;;;;;;;30.60;20.80;;;;;;;18.04;100.00;100606.22;5054534;28;20020;-48
2022/08/16 05:18:42;;;;;;;29.42;19.75;;;;;;;18.03;100.00;100607.28;5050218;28;20467;-46
2022/08/16 05:21:07;;;;;;;31.52;20.55;;;;;;;18.07;100.00;100613.88;5054859;28;20259;-47
2022/08/16 05:23:33;;;;;;;32.25;20.67;;;;;;;18.10;100.00;100609.94;5054366;28;20047;-43
2022/08/16 05:25:59;;;;;;;33.88;21.25;;;;;;;18.05;100.00;100606.00;5055094;28;20043;-45
2022/08/16 05:28:25;;;;;;;31.48;20.98;;;;;;;18.08;100.00;100608.28;5047607;28;20059;-43
2022/08/16 05:30:51;;;;;;;30.25;21.48;;;;;;;18.05;100.00;100615.97;5051810;28;20111;-45
2022/08/16 05:33:17;;;;;;;29.98;21.52;;;;;;;18.04;100.00;100614.31;5053424;28;20154;-47
2022/08/16 05:35:43;;;;;;;32.20;20.88;;;;;;;18.05;100.00;100616.81;5054764;28;20450;-45
2022/08/16 05:38:08;;;;;;;31.40;21.63;;;;;;;18.04;100.00;100615.16;5052014;28;20059;-49
2022/08/16 05:40:34;;;;;;;34.33;22.23;;;;;;;18.05;100.00;100615.97;5054703;28;20438;-50
2022/08/16 05:42:59;;;;;;;30.38;21.90;;;;;;;18.07;100.00;100616.59;5054947;28;20298;-45
2022/08/16 05:45:24;;;;;;;31.85;22.48;;;;;;;18.07;100.00;100622.00;5052878;28;20116;-50
2022/08/16 05:47:50;;;;;;;34.15;22.65;;;;;;;18.10;100.00;100620.75;5055154;28;20347;-49
2022/08/16 05:50:15;;;;;;;34.22;23.85;;;;;;;18.12;100.00;100621.34;5054930;28;20560;-47
2022/08/16 05:52:40;;;;;;;36.08;22.77;;;;;;;18.14;100.00;100622.78;5054987;28;20035;-47
2022/08/16 05:55:06;;;;;;;33.92;23.10;;;;;;;18.19;100.00;100624.84;5054716;28;20031;-44
2022/08/16 05:57:31;;;;;;;28.23;21.65;;;;;;;18.23;100.00;100629.59;5043985;28;20048;-48
2022/08/16 05:59:57;;;;;;;36.22;22.00;;;;;;;18.30;100.00;100624.16;5035083;28;20021;-49
2022/08/16 06:02:26;;;;;;;31.60;21.65;;;;;;;18.38;100.00;100632.00;5047368;28;20075;-47
2022/08/16 06:04:51;;;;;;;30.80;22.05;;;;;;;18.43;100.00;100621.38;5054016;28;20473;-48
2022/08/16 06:07:16;;;;;;;35.13;22.42;;;;;;;18.49;100.00;100624.25;5054445;28;20033;-45
2022/08/16 06:09:42;;;;;;;34.03;22.80;;;;;;;18.58;100.00;100639.97;5035520;28;20035;-44
2022/08/16 06:12:07;;;;;;;31.38;21.83;;;;;;;18.68;100.00;100635.97;5044152;28;20070;-47
2022/08/16 06:14:33;;;;;;;33.45;22.85;;;;;;;18.76;100.00;100639.22;5054579;28;20638;-46
2022/08/16 06:16:58;;;;;;;36.97;23.38;;;;;;;18.83;100.00;100644.59;5052120;28;20052;-48
2022/08/16 06:19:24;;;;;;;29.88;21.92;;;;;;;18.90;100.00;100639.16;5055158;28;20024;-46
2022/08/16 06:21:49;;;;;;;38.42;23.33;;;;;;;18.94;100.00;100640.34;5053450;28;20103;-48
2022/08/16 06:24:14;;;;;;;35.53;22.23;;;;;;;19.01;100.00;100647.38;5054698;28;20013;-47
2022/08/16 06:26:40;;;;;;;29.55;21.67;;;;;;;19.06;100.00;100654.84;5054025;28;20115;-47
2022/08/16 06:29:06;;;;;;;35.08;21.98;;;;;;;19.10;100.00;100653.31;5053775;28;20020;-44
2022/08/16 06:31:31;;;;;;;28.23;20.45;;;;;;;19.18;100.00;100652.22;5052483;28;20086;-47
2022/08/16 06:33:57;;;;;;;33.92;21.55;;;;;;;19.22;100.00;100652.59;5053804;28;20097;-48
2022/08/16 06:36:23;;;;;;;32.15;22.10;;;;;;;19.32;100.00;100666.47;5049375;28;20076;-45
2022/08/16 06:38:49;;;;;;;37.53;21.55;;;;;;;19.37;100.00;100659.31;5040030;28;20192;-48
2022/08/16 06:41:15;;;;;;;29.33;22.15;;;;;;;19.43;100.00;100656.75;5047259;28;20041;-46
2022/08/16 06:43:40;;;;;;;29.55;20.65;;;;;;;19.45;100.00;100657.34;5046569;28;20111;-46
2022/08/16 06:46:19;;;;;;;35.67;22.17;;;;;;;19.52;100.00;100656.25;5051582;28;20040;-49
2022/08/16 06:48:44;;;;;;;29.33;21.73;;;;;;;19.64;100.00;100658.22;5047778;28;20040;-44
2022/08/16 06:51:10;;;;;;;35.33;21.55;;;;;;;19.77;100.00;100654.53;5051516;28;20017;-48
2022/08/16 06:53:35;;;;;;;34.00;22.33;;;;;;;19.86;100.00;100664.84;5052088;28;20029;-47
2022/08/16 06:56:04;;;;;;;29.40;21.65;;;;;;;19.94;100.00;100669.13;5053161;28;20025;-45
2022/08/16 06:58:29;;;;;;;35.13;23.10;;;;;;;20.06;100.00;100667.31;5054494;28;20021;-47
2022/08/16 07:00:55;;;;;;;30.23;22.27;;;;;;;20.20;100.00;100661.72;5053071;28;20035;-48
2022/08/16 07:03:20;;;;;;;31.63;23.25;;;;;;;20.27;100.00;100663.28;5052049;28;20032;-49
2022/08/16 07:05:45;;;;;;;35.10;23.10;;;;;;;20.34;100.00;100665.06;5047933;28;20032;-44
2022/08/16 07:08:11;;;;;;;36.90;22.77;;;;;;;20.43;100.00;100672.63;5049333;28;20183;-45
2022/08/16 07:10:36;;;;;;;31.05;23.58;;;;;;;20.46;100.00;100669.47;5033205;28;20519;-47
2022/08/16 07:13:02;;;;;;;32.55;23.63;;;;;;;20.50;100.00;100673.38;5052591;28;20028;-45
2022/08/16 07:15:27;;;;;;;33.70;23.63;;;;;;;20.62;100.00;100669.84;5046058;28;20020;-46
2022/08/16 07:17:52;;;;;;;34.10;24.67;;;;;;;20.77;100.00;100677.59;5048685;28;20341;-46
2022/08/16 07:20:21;;;;;;;33.17;23.55;;;;;;;20.83;100.00;100677.50;5044175;28;20029;-46
2022/08/16 07:22:47;;;;;;;31.13;24.17;;;;;;;20.92;100.00;100679.88;5043637;28;20039;-45
2022/08/16 07:25:13;;;;;;;36.20;23.85;;;;;;;20.95;100.00;100676.69;5035006;28;20029;-45
2022/08/16 07:27:40;;;;;;;37.03;24.48;;;;;;;20.98;100.00;100677.06;5056248;28;20105;-47
2022/08/16 07:30:09;;;;;;;33.35;24.00;;;;;;;21.06;100.00;100684.00;5051701;28;20118;-49
2022/08/16 07:32:35;;;;;;;32.15;24.10;;;;;;;21.10;100.00;100685.22;5055245;28;20056;-45
2022/08/16 07:35:00;;;;;;;28.95;23.27;;;;;;;21.17;100.00;100694.06;5054715;28;20448;-47
2022/08/16 07:37:26;;;;;;;32.25;23.05;;;;;;;21.38;100.00;100695.34;5054633;28;20040;-46
2022/08/16 07:39:52;;;;;;;32.72;22.70;;;;;;;21.59;98.68;100687.72;5054398;28;20050;-46
2022/08/16 07:42:17;;;;;;;32.50;22.08;;;;;;;21.70;98.62;100697.72;5048427;28;20025;-47
2022/08/16 07:44:43;;;;;;;30.40;21.48;;;;;;;21.77;97.98;100700.31;5057903;28;20054;-43
2022/08/16 07:47:08;;;;;;;30.30;21.70;;;;;;;21.87;97.51;100694.28;5054309;28;20020;-45
2022/08/16 07:49:33;;;;;;;29.58;20.83;;;;;;;21.91;95.83;100700.88;5056798;28;20295;-48
2022/08/16 07:51:59;;;;;;;28.55;20.38;;;;;;;22.02;95.47;100701.94;5056071;28;20027;-48
2022/08/16 07:54:24;;;;;;;29.20;18.77;;;;;;;22.14;94.32;100700.81;5050495;28;20402;-48
2022/08/16 07:56:49;;;;;;;31.70;19.15;;;;;;;22.16;93.34;100695.13;5056884;28;20095;-47
2022/08/16 07:59:14;;;;;;;29.50;20.10;;;;;;;22.09;93.26;100703.44;5056075;28;20025;-47
2022/08/16 08:01:40;;;;;;;25.33;19.55;;;;;;;22.10;93.91;100704.28;5052313;28;20356;-45
2022/08/16 08:04:09;;;;;;;25.75;19.10;;;;;;;22.16;92.79;100703.28;5055118;28;20051;-49
2022/08/16 08:06:35;;;;;;;30.67;18.17;;;;;;;22.29;94.53;100694.88;5054310;28;20068;-46
2022/08/16 08:09:02;;;;;;;33.55;18.90;;;;;;;22.49;93.31;100705.31;5055055;28;20048;-48
2022/08/16 08:11:29;;;;;;;25.38;17.90;;;;;;;22.63;91.81;100703.13;5052085;28;20021;-46
2022/08/16 08:13:58;;;;;;;24.67;17.33;;;;;;;22.70;90.82;100714.69;5054370;28;20719;-47
2022/08/16 08:16:24;;;;;;;26.55;16.80;;;;;;;22.73;89.12;100710.66;5048586;28;20456;-47
2022/08/16 08:18:49;;;;;;;24.65;16.30;;;;;;;22.82;89.15;100716.50;5050229;28;20032;-48
2022/08/16 08:21:18;;;;;;;22.90;16.50;;;;;;;22.95;89.01;100716.19;5054011;28;20251;-44
2022/08/16 08:23:43;;;;;;;25.50;16.08;;;;;;;23.06;86.84;100720.75;5057092;28;20024;-46
2022/08/16 08:26:08;;;;;;;22.83;15.88;;;;;;;23.19;85.44;100716.88;5050675;28;20028;-46
2022/08/16 08:28:34;;;;;;;27.90;15.65;;;;;;;23.33;86.40;100713.81;5050049;28;20440;-47
2022/08/16 08:31:00;;;;;;;21.52;15.57;;;;;;;23.43;85.70;100722.16;5052562;28;20537;-51
2022/08/16 08:33:26;;;;;;;22.05;14.43;;;;;;;23.58;85.82;100721.56;5057756;28;20085;-46
2022/08/16 08:35:55;;;;;;;25.17;14.45;;;;;;;23.67;84.74;100719.22;5057369;28;20024;-46
2022/08/16 08:38:22;;;;;;;15.82;12.60;;;;;;;23.81;84.21;100713.19;5039711;28;20037;-49
2022/08/16 08:40:47;;;;;;;21.15;13.57;;;;;;;23.93;82.57;100721.25;5048899;28;20110;-45
2022/08/16 08:43:13;;;;;;;18.67;13.20;;;;;;;24.12;81.65;100715.47;5036511;28;20116;-49
2022/08/16 08:45:40;;;;;;;20.73;12.88;;;;;;;24.16;78.63;100720.16;5035499;28;20037;-48
2022/08/16 08:48:05;;;;;;;19.48;12.77;;;;;;;24.19;78.58;100722.38;5042933;28;20050;-46
2022/08/16 08:50:31;;;;;;;19.13;12.13;;;;;;;24.40;79.15;100728.88;5055176;28;20024;-48
2022/08/16 08:52:56;;;;;;;20.38;11.88;;;;;;;24.63;78.35;100734.34;5046226;28;20067;-46
2022/08/16 08:55:22;;;;;;;21.42;11.75;;;;;;;24.85;78.18;100734.28;5035265;28;20571;-43
2022/08/16 08:57:49;;;;;;;17.08;11.52;;;;;;;24.95;77.56;100726.19;5036544;28;20025;-47
2022/08/16 09:00:18;;;;;;;22.70;12.95;;;;;;;24.88;75.65;100740.06;5035270;28;20039;-44
2022/08/16 09:02:44;;;;;;;14.05;10.43;;;;;;;24.99;74.53;100737.41;5051810;28;20056;-49
2022/08/16 09:05:11;;;;;;;17.30;12.23;;;;;;;24.90;73.96;100737.88;5039681;28;20067;-47
2022/08/16 09:07:37;;;;;;;18.38;12.32;;;;;;;24.86;74.53;100739.47;5054906;28;20032;-47
2022/08/16 09:10:05;;;;;;;17.50;11.30;;;;;;;24.87;75.01;100743.03;5035467;28;20476;-47
2022/08/16 09:12:30;;;;;;;16.85;11.15;;;;;;;24.92;73.71;100741.16;5053191;28;20028;-50
2022/08/16 09:14:55;;;;;;;16.73;11.02;;;;;;;25.10;74.22;100737.22;5052663;28;20490;-50
2022/08/16 09:17:21;;;;;;;21.23;11.02;;;;;;;25.29;73.77;100732.22;5039346;28;20675;-47
2022/08/16 09:19:46;;;;;;;19.48;10.60;;;;;;;25.35;71.48;100743.19;5049394;28;20108;-47
2022/08/16 09:22:11;;;;;;;16.40;10.40;;;;;;;25.43;71.86;100743.50;5055395;28;20498;-50
2022/08/16 09:24:37;;;;;;;21.73;10.57;;;;;;;25.52;70.92;100743.03;5043896;28;20040;-47
2022/08/16 09:27:03;;;;;;;15.15;9.32;;;;;;;25.66;72.61;100736.84;5053310;28;20035;-47
2022/08/16 09:29:29;;;;;;;15.18;9.27;;;;;;;25.81;71.55;100744.28;5037980;28;20087;-46
2022/08/16 09:31:56;;;;;;;19.83;8.63;;;;;;;26.08;70.32;100751.56;5053169;28;20217;-48
2022/08/16 09:34:22;;;;;;;18.10;9.93;;;;;;;26.18;67.90;100748.03;5055548;28;20388;-48
2022/08/16 09:36:47;;;;;;;17.15;8.50;;;;;;;26.43;68.80;100748.13;5041852;28;20082;-46
2022/08/16 09:39:13;;;;;;;14.18;8.35;;;;;;;26.51;64.77;100745.94;5038974;28;20029;-48
2022/08/16 09:41:39;;;;;;;18.50;8.95;;;;;;;26.68;58.22;100746.56;5035001;28;20052;-46
2022/08/16 09:44:05;;;;;;;16.85;8.82;;;;;;;26.79;56.14;100748.22;5049551;28;20105;-50
2022/08/16 09:46:31;;;;;;;17.00;8.48;;;;;;;26.89;55.35;100752.88;5034606;28;20063;-48
2022/08/16 09:48:57;;;;;;;12.48;8.45;;;;;;;26.86;54.64;100758.09;5038684;28;20088;-47
2022/08/16 09:51:25;;;;;;;15.60;7.93;;;;;;;26.98;54.65;100753.97;5035655;28;20396;-48
2022/08/16 09:53:51;;;;;;;13.02;7.93;;;;;;;26.89;54.57;100752.06;5039284;28;20032;-48
2022/08/16 09:56:29;;;;;;;15.43;8.27;;;;;;;27.01;53.93;100751.81;5034862;28;20471;-44
2022/08/16 09:58:56;;;;;;;16.98;7.85;;;;;;;26.99;52.25;100755.63;5041997;28;20098;-48
2022/08/16 10:01:23;;;;;;;15.02;6.72;;;;;;;27.13;51.21;100753.16;5054584;28;20017;-49
2022/08/16 10:03:49;;;;;;;11.75;6.75;;;;;;;27.24;50.38;100750.41;5055206;28;20052;-49
2022/08/16 10:06:14;;;;;;;14.00;6.55;;;;;;;27.35;50.90;100746.59;5055491;28;20115;-46
2022/08/16 10:08:40;;;;;;;8.93;6.10;;;;;;;27.45;50.28;100740.28;5055055;28;20488;-48
2022/08/16 10:13:56;;;;;;;10.25;6.20;;;;;;;27.82;49.21;100744.59;5018459;28;20059;-48
2022/08/16 10:16:22;;;;;;;11.45;6.18;;;;;;;27.79;47.88;100754.19;5048401;28;20467;-49
2022/08/16 10:18:47;;;;;;;15.00;6.50;;;;;;;27.79;47.45;100751.44;5055102;28;20031;-50
2022/08/16 10:21:15;;;;;;;11.32;6.25;;;;;;;28.12;48.10;100751.91;5047470;28;20017;-50
2022/08/16 10:23:42;;;;;;;13.90;6.38;;;;;;;28.31;47.21;100745.78;5048678;28;20118;-50
2022/08/16 10:26:07;;;;;;;12.40;6.68;;;;;;;28.43;45.94;100749.03;5040336;28;20032;-49
2022/08/16 10:28:33;;;;;;;10.85;6.45;;;;;;;28.38;45.39;100757.28;5055341;28;20392;-47
2022/08/16 10:31:04;;;;;;;13.55;6.25;;;;;;;28.52;46.69;100744.56;5048856;28;20356;-46
2022/08/16 10:33:32;;;;;;;15.10;6.15;;;;;;;28.86;46.43;100749.31;5034772;28;20079;-49
2022/08/16 10:35:58;;;;;;;9.90;5.65;;;;;;;28.87;45.42;100745.47;5034737;28;20035;-48
2022/08/16 10:38:23;;;;;;;12.60;6.18;;;;;;;28.83;45.96;100761.69;5034667;28;20376;-47
2022/08/16 10:40:48;;;;;;;12.93;6.13;;;;;;;28.65;44.63;100748.66;5032333;28;20020;-51
2022/08/16 10:43:13;;;;;;;13.98;5.50;;;;;;;28.50;45.45;100766.00;5034534;28;20028;-48
2022/08/16 10:45:39;;;;;;;16.10;6.13;;;;;;;28.40;44.84;100771.56;5040931;28;20093;-50
2022/08/16 10:48:09;;;;;;;9.65;6.43;;;;;;;28.31;45.21;100771.34;5034230;28;20024;-49
2022/08/16 10:50:35;;;;;;;;;;;;;;;28.65;45.71;100771.44;5034992;28;20140;-48
2022/08/16 10:53:05;;;;;;;15.95;7.00;;;;;;;28.63;44.28;100765.41;5035435;28;20423;-45
2022/08/16 10:55:38;;;;;;;13.45;7.35;;;;;;;28.82;44.34;100773.81;5050564;28;20029;-47
2022/08/16 10:58:06;;;;;;;15.30;6.45;;;;;;;28.90;44.59;100771.53;5044159;28;20305;-46
2022/08/16 11:00:32;;;;;;;14.20;6.20;;;;;;;29.02;44.72;100772.84;5050380;28;20494;-47
2022/08/16 11:03:02;;;;;;;11.45;5.97;;;;;;;29.34;43.97;100773.41;5036679;28;20029;-45
2022/08/16 11:05:30;;;;;;;11.55;5.70;;;;;;;29.26;42.59;100785.88;5041746;28;20036;-45